createdAt,value
2023-04-16T00:01:06.945Z,94.89
2023-04-16T00:03:34.041Z,94.12
2023-04-16T00:06:01.211Z,94.28
2023-04-16T00:08:28.086Z,93.80
2023-04-16T00:10:54.964Z,93.77
2023-04-16T00:13:22.727Z,93.64
2023-04-16T00:15:49.653Z,92.58
2023-04-16T00:18:16.525Z,93.69
2023-04-16T00:20:43.357Z,92.72
2023-04-16T00:23:10.262Z,92.54
2023-04-16T00:25:37.074Z,92.83
2023-04-16T00:28:05.628Z,93.99
2023-04-16T00:30:32.506Z,93.10
2023-04-16T00:32:59.908Z,94.16
2023-04-16T00:35:27.132Z,93.47
2023-04-16T00:37:54.039Z,93.93
2023-04-16T00:40:20.986Z,93.55
2023-04-16T00:42:48.211Z,94.27
2023-04-16T00:45:15.178Z,94.37
2023-04-16T00:47:42.686Z,94.02
2023-04-16T00:50:10.632Z,92.85
2023-04-16T00:52:38.631Z,94.16
2023-04-16T00:55:07.840Z,94.25
2023-04-16T00:57:35.062Z,93.02
2023-04-16T01:00:02.889Z,94.47
2023-04-16T01:02:29.875Z,95.02
2023-04-16T01:04:56.994Z,93.54
2023-04-16T01:07:23.843Z,96.52
2023-04-16T01:09:50.817Z,94.31
2023-04-16T01:12:17.607Z,93.60
2023-04-16T01:14:44.506Z,94.05
2023-04-16T01:17:11.889Z,94.59
2023-04-16T01:19:38.777Z,94.24
2023-04-16T01:22:06.297Z,95.19
2023-04-16T01:24:35.953Z,93.78
2023-04-16T01:27:03.687Z,93.83
2023-04-16T01:29:31.205Z,92.81
2023-04-16T01:31:59.683Z,92.72
2023-04-16T01:34:31.243Z,92.38
2023-04-16T01:36:58.440Z,92.38
2023-04-16T01:39:25.386Z,92.23
2023-04-16T01:41:52.368Z,92.48
2023-04-16T01:44:19.207Z,91.89
2023-04-16T01:46:46.467Z,92.33
2023-04-16T01:49:13.906Z,92.10
2023-04-16T01:51:41.130Z,91.79
2023-04-16T01:54:08.276Z,93.48
2023-04-16T01:56:35.386Z,94.01
2023-04-16T01:59:02.848Z,92.22
2023-04-16T02:01:35.686Z,90.50
2023-04-16T02:04:03.128Z,90.09
2023-04-16T02:06:30.725Z,89.57
2023-04-16T02:08:57.585Z,88.86
2023-04-16T02:11:26.667Z,89.03
2023-04-16T02:13:54.345Z,89.21
2023-04-16T02:16:21.332Z,89.95
2023-04-16T02:19:00.113Z,90.45
2023-04-16T02:21:31.800Z,90.44
2023-04-16T02:23:58.713Z,90.37
2023-04-16T02:26:29.852Z,89.84
2023-04-16T02:29:02.069Z,90.23
2023-04-16T02:31:37.834Z,92.66
2023-04-16T02:34:05.461Z,93.32
2023-04-16T02:36:33.293Z,91.78
2023-04-16T02:39:00.193Z,91.26
2023-04-16T02:41:27.017Z,90.28
2023-04-16T02:43:53.945Z,89.90
2023-04-16T02:46:20.983Z,88.81
2023-04-16T02:48:47.969Z,89.46
2023-04-16T02:51:14.911Z,88.60
2023-04-16T02:53:46.062Z,88.73
2023-04-16T02:56:13.728Z,87.97
2023-04-16T02:58:40.805Z,89.34
2023-04-16T03:01:10.467Z,91.13
2023-04-16T03:03:37.432Z,91.57
2023-04-16T03:06:04.463Z,90.10
2023-04-16T03:08:31.359Z,89.03
2023-04-16T03:10:58.265Z,88.41
2023-04-16T03:13:25.270Z,88.36
2023-04-16T03:15:52.194Z,88.89
2023-04-16T03:18:19.084Z,88.55
2023-04-16T03:20:46.143Z,88.38
2023-04-16T03:23:13.134Z,88.88
2023-04-16T03:25:40.794Z,92.67
2023-04-16T03:28:11.029Z,94.74
2023-04-16T03:30:38.930Z,93.10
2023-04-16T03:33:06.987Z,90.63
2023-04-16T03:35:33.941Z,90.71
2023-04-16T03:38:01.560Z,89.15
2023-04-16T03:40:29.135Z,87.97
2023-04-16T03:42:56.419Z,87.90
2023-04-16T03:45:23.266Z,87.61
2023-04-16T03:47:52.846Z,87.39
2023-04-16T03:50:22.663Z,87.96
2023-04-16T03:52:49.547Z,87.48
2023-04-16T03:55:17.874Z,88.46
2023-04-16T03:57:45.685Z,88.93
2023-04-16T04:00:15.427Z,88.13
2023-04-16T04:02:53.475Z,88.59
2023-04-16T04:05:20.738Z,88.31
2023-04-16T04:07:49.002Z,86.84
2023-04-16T04:10:16.934Z,86.32
2023-04-16T04:12:44.320Z,85.18
2023-04-16T04:15:12.486Z,84.99
2023-04-16T04:17:39.362Z,86.07
2023-04-16T04:20:07.027Z,84.39
2023-04-16T04:22:33.987Z,84.36
2023-04-16T04:25:00.867Z,85.18
2023-04-16T04:27:30.515Z,85.64
2023-04-16T04:29:58.105Z,84.79
2023-04-16T04:32:25.209Z,84.17
2023-04-16T04:34:52.159Z,83.38
2023-04-16T04:37:19.038Z,82.36
2023-04-16T04:39:46.414Z,80.96
2023-04-16T04:42:13.251Z,79.42
2023-04-16T04:44:40.206Z,78.26
2023-04-16T04:47:08.392Z,76.77
2023-04-16T04:49:35.492Z,75.32
2023-04-16T04:52:03.169Z,72.89
2023-04-16T04:54:32.691Z,74.13
2023-04-16T04:57:00.161Z,76.29
2023-04-16T04:59:28.880Z,76.69
2023-04-16T05:01:55.926Z,73.10
2023-04-16T05:04:22.910Z,68.50
2023-04-16T05:06:49.835Z,68.65
2023-04-16T05:09:17.492Z,69.40
2023-04-16T05:11:44.390Z,69.05
2023-04-16T05:14:34.060Z,67.65
2023-04-16T05:17:01.158Z,67.47
2023-04-16T05:19:28.025Z,68.35
2023-04-16T05:21:55.037Z,68.71
2023-04-16T05:24:22.657Z,69.16
2023-04-16T05:26:49.499Z,69.07
2023-04-16T05:29:16.344Z,67.96
2023-04-16T05:31:43.273Z,65.94
2023-04-16T05:34:10.204Z,64.87
2023-04-16T05:36:37.022Z,64.04
2023-04-16T05:39:04.072Z,62.92
2023-04-16T05:41:31.016Z,61.08
2023-04-16T05:43:57.965Z,60.24
2023-04-16T05:46:24.916Z,59.66
2023-04-16T05:48:52.121Z,58.98
2023-04-16T05:51:19.054Z,57.04
2023-04-16T05:53:46.020Z,57.17
2023-04-16T05:56:12.958Z,61.47
2023-04-16T05:58:39.844Z,57.51
2023-04-16T06:01:07.676Z,56.56
2023-04-16T06:03:34.748Z,59.38
2023-04-16T06:06:01.862Z,64.01
2023-04-16T06:08:28.930Z,67.56
2023-04-16T06:10:56.700Z,68.15
2023-04-16T06:13:23.745Z,67.60
2023-04-16T06:15:50.789Z,65.24
2023-04-16T06:18:17.760Z,64.25
2023-04-16T06:20:44.741Z,64.08
2023-04-16T06:23:11.746Z,63.31
2023-04-16T06:25:38.704Z,62.58
2023-04-16T06:28:06.194Z,58.29
2023-04-16T06:30:33.687Z,54.82
2023-04-16T06:33:01.051Z,51.27
2023-04-16T06:35:28.329Z,47.93
2023-04-16T06:37:55.695Z,46.25
2023-04-16T06:40:22.916Z,42.75
2023-04-16T06:42:49.920Z,43.21
2023-04-16T06:45:16.999Z,46.54
2023-04-16T06:47:43.999Z,46.34
2023-04-16T06:50:11.293Z,48.23
2023-04-16T06:52:38.373Z,49.41
2023-04-16T06:55:07.312Z,48.26
2023-04-16T06:57:35.633Z,46.48
2023-04-16T07:00:05.274Z,42.89
2023-04-16T07:02:32.322Z,40.65
2023-04-16T07:04:59.480Z,42.01
2023-04-16T07:07:26.469Z,47.34
2023-04-16T07:09:53.439Z,50.05
2023-04-16T07:12:22.476Z,49.68
2023-04-16T07:14:49.998Z,49.93
2023-04-16T07:17:17.026Z,50.20
2023-04-16T07:19:44.495Z,51.88
2023-04-16T07:22:11.417Z,50.90
2023-04-16T07:24:38.372Z,49.70
2023-04-16T07:40:38.009Z,50.56
2023-04-16T07:43:05.028Z,48.77
2023-04-16T07:48:34.214Z,45.25
2023-04-16T07:51:01.171Z,46.91
2023-04-16T07:53:28.214Z,43.72
2023-04-16T07:55:55.263Z,42.48
2023-04-16T07:58:22.311Z,44.14
2023-04-16T08:00:50.858Z,43.05
2023-04-16T08:03:18.674Z,41.69
2023-04-16T08:05:45.793Z,39.83
2023-04-16T08:08:12.952Z,36.31
2023-04-16T08:10:39.949Z,36.36
2023-04-16T08:13:06.947Z,38.19
2023-04-16T08:15:34.023Z,39.08
2023-04-16T08:18:01.426Z,41.47
2023-04-16T08:20:28.897Z,40.39
2023-04-16T08:22:56.602Z,38.43
2023-04-16T08:25:24.834Z,34.81
2023-04-16T08:27:51.895Z,34.58
2023-04-16T08:30:19.095Z,37.34
2023-04-16T08:32:48.616Z,37.46
2023-04-16T08:35:17.062Z,39.30
2023-04-16T08:37:44.122Z,37.48
2023-04-16T08:40:11.585Z,36.27
2023-04-16T08:42:58.149Z,36.69
2023-04-16T08:45:27.263Z,36.50
2023-04-16T08:47:54.573Z,36.48
2023-04-16T08:50:26.751Z,35.72
2023-04-16T08:52:58.711Z,34.72
2023-04-16T08:55:37.708Z,38.36
2023-04-16T08:58:13.900Z,40.14
2023-04-16T09:00:43.758Z,40.05
2023-04-16T09:03:11.554Z,35.64
2023-04-16T09:05:39.405Z,33.99
2023-04-16T09:08:07.170Z,32.69
2023-04-16T09:10:35.096Z,31.31
2023-04-16T09:13:02.159Z,31.59
2023-04-16T09:15:29.638Z,36.34
2023-04-16T09:17:57.854Z,36.09
2023-04-16T09:20:25.114Z,35.64
2023-04-16T09:22:52.432Z,34.38
2023-04-16T09:25:22.811Z,37.15
2023-04-16T09:27:51.315Z,34.57
2023-04-16T09:30:22.342Z,33.35
2023-04-16T09:32:50.708Z,32.76
2023-04-16T09:35:20.946Z,33.29
2023-04-16T09:37:58.295Z,34.29
2023-04-16T09:40:30.588Z,34.21
2023-04-16T09:42:58.589Z,34.00
2023-04-16T09:45:25.710Z,34.58
2023-04-16T09:47:52.781Z,34.86
2023-04-16T09:50:20.688Z,36.95
2023-04-16T09:52:51.753Z,35.90
2023-04-16T09:55:24.189Z,37.49
2023-04-16T09:57:59.493Z,39.97
2023-04-16T10:00:26.626Z,38.02
2023-04-16T10:03:07.237Z,39.48
2023-04-16T10:05:34.895Z,40.52
2023-04-16T10:08:04.948Z,41.99
2023-04-16T10:10:32.807Z,42.33
2023-04-16T10:13:00.219Z,43.17
2023-04-16T10:15:27.960Z,44.28
2023-04-16T10:17:56.199Z,44.80
2023-04-16T10:20:24.250Z,45.75
2023-04-16T10:22:51.449Z,48.30
2023-04-16T10:25:18.833Z,47.61
2023-04-16T10:27:46.480Z,46.12
2023-04-16T10:30:15.680Z,44.81
2023-04-16T10:32:42.769Z,41.88
2023-04-16T10:35:09.795Z,48.55
2023-04-16T10:37:37.673Z,51.45
2023-04-16T10:40:23.628Z,53.92
2023-04-16T10:42:58.098Z,57.06
2023-04-16T10:45:32.989Z,59.77
2023-04-16T10:48:03.157Z,62.74
2023-04-16T10:50:37.307Z,62.87
2023-04-16T10:53:23.000Z,63.73
2023-04-16T10:56:05.831Z,63.73
2023-04-16T10:58:36.458Z,63.35
2023-04-16T11:01:13.871Z,64.30
2023-04-16T11:03:47.119Z,62.07
2023-04-16T11:06:24.039Z,59.69
2023-04-16T11:08:55.460Z,52.35
2023-04-16T11:11:23.499Z,46.79
2023-04-16T11:13:55.903Z,47.15
2023-04-16T11:16:24.768Z,48.93
2023-04-16T11:18:51.971Z,52.15
2023-04-16T11:21:20.676Z,55.77
2023-04-16T11:23:51.599Z,61.41
2023-04-16T11:26:28.171Z,64.73
2023-04-16T11:28:56.829Z,67.15
2023-04-16T11:31:24.824Z,68.71
2023-04-16T11:33:51.860Z,69.50
2023-04-16T11:36:19.009Z,70.74
2023-04-16T11:38:47.835Z,70.98
2023-04-16T11:41:20.056Z,69.60
2023-04-16T11:43:46.897Z,70.42
2023-04-16T11:46:26.378Z,71.08
2023-04-16T11:48:56.184Z,72.94
2023-04-16T11:51:23.862Z,74.35
2023-04-16T11:53:54.392Z,75.54
2023-04-16T11:56:33.411Z,76.45
2023-04-16T11:59:17.847Z,76.32
2023-04-16T12:01:49.359Z,75.40
2023-04-16T12:04:18.914Z,77.87
2023-04-16T12:07:06.022Z,78.26
2023-04-16T12:09:37.037Z,76.83
2023-04-16T12:12:05.847Z,77.34
2023-04-16T12:14:33.248Z,76.61
2023-04-16T12:17:33.154Z,76.34
2023-04-16T12:20:03.846Z,77.15
2023-04-16T12:22:33.629Z,76.61
2023-04-16T12:25:04.319Z,76.21
2023-04-16T12:27:53.990Z,77.12
2023-04-16T12:30:23.433Z,78.51
2023-04-16T12:32:53.686Z,79.67
2023-04-16T12:35:34.405Z,78.93
2023-04-16T12:38:01.584Z,77.88
2023-04-16T12:40:28.648Z,77.45
2023-04-16T12:42:55.796Z,78.36
2023-04-16T12:45:22.936Z,78.66
2023-04-16T12:47:50.650Z,78.38
2023-04-16T12:50:18.193Z,77.77
2023-04-16T12:52:45.275Z,76.78
2023-04-16T12:55:14.164Z,77.18
2023-04-16T12:57:41.543Z,78.28
2023-04-16T13:00:10.838Z,78.26
2023-04-16T13:02:38.158Z,78.85
2023-04-16T13:05:05.644Z,77.93
2023-04-16T13:07:34.106Z,78.08
2023-04-16T13:10:01.236Z,77.86
2023-04-16T13:12:28.642Z,77.94
2023-04-16T13:14:56.037Z,78.65
2023-04-16T13:17:23.057Z,77.34
2023-04-16T13:19:50.063Z,79.68
2023-04-16T13:22:17.190Z,81.32
2023-04-16T13:24:44.219Z,83.99
2023-04-16T13:27:11.550Z,83.85
2023-04-16T13:29:38.679Z,83.53
2023-04-16T13:32:06.392Z,82.76
2023-04-16T13:34:33.552Z,84.12
2023-04-16T13:37:00.532Z,84.82
2023-04-16T13:39:27.541Z,84.99
2023-04-16T13:41:54.473Z,84.51
2023-04-16T13:44:21.884Z,83.33
2023-04-16T13:46:48.907Z,83.08
2023-04-16T13:49:16.354Z,83.18
2023-04-16T13:51:44.931Z,83.68
2023-04-16T13:54:12.105Z,83.37
2023-04-16T13:56:39.625Z,83.42
2023-04-16T13:59:06.780Z,83.77
2023-04-16T14:01:33.981Z,83.39
2023-04-16T14:04:06.435Z,82.48
2023-04-16T14:06:34.700Z,83.17
2023-04-16T14:09:02.154Z,84.04
2023-04-16T14:11:29.185Z,83.04
2023-04-16T14:13:56.344Z,84.76
2023-04-16T14:16:23.584Z,85.03
2023-04-16T14:18:52.093Z,85.68
2023-04-16T14:21:19.388Z,86.02
2023-04-16T14:23:46.845Z,86.72
2023-04-16T14:26:13.985Z,87.60
2023-04-16T14:28:41.284Z,88.62
2023-04-16T14:31:08.591Z,89.38
2023-04-16T14:33:35.640Z,90.27
2023-04-16T14:36:03.584Z,91.50
2023-04-16T14:38:31.397Z,92.54
2023-04-16T14:41:00.244Z,93.40
2023-04-16T14:43:27.447Z,94.26
2023-04-16T14:45:54.576Z,95.05
2023-04-16T14:48:22.192Z,94.96
2023-04-16T14:50:49.295Z,94.55
2023-04-16T14:53:16.451Z,92.87
2023-04-16T14:55:43.425Z,93.81
2023-04-16T14:58:10.898Z,92.71
2023-04-16T15:00:37.868Z,93.27
2023-04-16T15:03:05.837Z,93.59
2023-04-16T15:05:33.066Z,93.50
2023-04-16T15:08:00.752Z,92.95
2023-04-16T15:10:28.153Z,92.58
2023-04-16T15:12:55.056Z,92.55
2023-04-16T15:15:22.002Z,92.26
2023-04-16T15:17:50.510Z,93.08
2023-04-16T15:20:17.697Z,92.51
2023-04-16T15:22:44.584Z,92.46
2023-04-16T15:25:11.525Z,92.76
2023-04-16T15:27:38.582Z,91.93
2023-04-16T15:30:06.563Z,92.46
2023-04-16T15:32:33.469Z,92.10
2023-04-16T15:35:02.391Z,92.96
2023-04-16T15:37:29.376Z,93.04
2023-04-16T15:39:56.752Z,94.22
2023-04-16T15:42:24.790Z,95.93
2023-04-16T15:44:51.689Z,96.76
2023-04-16T15:47:18.696Z,97.47
2023-04-16T15:49:45.681Z,99.52
2023-04-16T15:52:12.569Z,99.00
2023-04-16T15:54:39.739Z,99.65
2023-04-16T15:57:06.636Z,100.00
2023-04-16T15:59:33.544Z,100.00
2023-04-16T16:02:01.197Z,100.00
2023-04-16T16:04:28.618Z,100.00
2023-04-16T16:06:56.539Z,100.00
2023-04-16T16:09:26.896Z,100.00
2023-04-16T16:11:54.563Z,100.00
2023-04-16T16:14:22.306Z,100.00
2023-04-16T16:16:49.491Z,100.00
2023-04-16T16:19:16.706Z,100.00
2023-04-16T16:21:43.596Z,100.00
2023-04-16T16:24:10.552Z,100.00
2023-04-16T16:26:37.696Z,100.00
2023-04-16T16:29:05.022Z,100.00
2023-04-16T16:31:31.949Z,100.00
2023-04-16T16:33:58.899Z,100.00
2023-04-16T16:36:26.629Z,100.00
2023-04-16T16:38:53.685Z,100.00
2023-04-16T16:41:20.688Z,100.00
2023-04-16T16:43:47.577Z,100.00
2023-04-16T16:46:14.699Z,100.00
2023-04-16T16:48:41.514Z,100.00
2023-04-16T16:51:11.480Z,100.00
2023-04-16T16:53:38.446Z,100.00
2023-04-16T16:56:05.827Z,100.00
2023-04-16T16:58:32.670Z,100.00
2023-04-16T17:00:59.948Z,100.00
2023-04-16T17:03:27.091Z,100.00
2023-04-16T17:05:54.245Z,100.00
2023-04-16T17:08:21.366Z,100.00
2023-04-16T17:10:48.392Z,100.00
2023-04-16T17:13:19.767Z,100.00
2023-04-16T17:15:47.069Z,100.00
2023-04-16T17:18:14.028Z,100.00
2023-04-16T17:20:41.176Z,100.00
2023-04-16T17:23:08.234Z,100.00
2023-04-16T17:25:35.232Z,100.00
2023-04-16T17:28:02.931Z,100.00
2023-04-16T17:30:32.141Z,100.00
2023-04-16T17:32:59.220Z,100.00
2023-04-16T17:35:26.242Z,100.00
2023-04-16T17:37:53.111Z,100.00
2023-04-16T17:40:19.948Z,100.00
2023-04-16T17:42:48.907Z,100.00
2023-04-16T17:45:16.377Z,100.00
2023-04-16T17:47:44.513Z,100.00
2023-04-16T17:50:12.117Z,100.00
2023-04-16T17:52:39.132Z,100.00
2023-04-16T17:55:14.460Z,100.00
2023-04-16T17:57:42.078Z,100.00
2023-04-16T18:00:11.583Z,100.00
2023-04-16T18:02:40.910Z,100.00
2023-04-16T18:05:09.135Z,100.00
2023-04-16T18:07:36.593Z,100.00
2023-04-16T18:10:03.695Z,100.00
2023-04-16T18:12:31.133Z,100.00
2023-04-16T18:14:58.087Z,100.00
2023-04-16T18:17:25.174Z,100.00
2023-04-16T18:19:52.145Z,100.00
2023-04-16T18:22:18.976Z,100.00
2023-04-16T18:24:45.990Z,100.00
2023-04-16T18:27:12.925Z,100.00
2023-04-16T18:29:40.563Z,100.00
2023-04-16T18:32:09.920Z,100.00
2023-04-16T18:34:38.805Z,100.00
2023-04-16T18:37:06.924Z,100.00
2023-04-16T18:39:34.219Z,100.00
2023-04-16T18:42:01.714Z,100.00
2023-04-16T18:44:28.558Z,100.00
2023-04-16T18:46:55.755Z,100.00
2023-04-16T18:49:22.735Z,100.00
2023-04-16T18:51:49.973Z,100.00
2023-04-16T18:54:16.960Z,100.00
2023-04-16T18:56:44.151Z,100.00
2023-04-16T18:59:11.570Z,100.00
2023-04-16T19:01:38.780Z,100.00
2023-04-16T19:04:05.880Z,100.00
2023-04-16T19:06:33.120Z,100.00
2023-04-16T19:09:00.089Z,100.00
2023-04-16T19:11:27.464Z,100.00
2023-04-16T19:13:54.572Z,100.00
2023-04-16T19:16:21.512Z,100.00
2023-04-16T19:18:48.433Z,100.00
2023-04-16T19:21:15.684Z,100.00
2023-04-16T19:23:42.867Z,100.00
2023-04-16T19:26:09.754Z,100.00
2023-04-16T19:41:59.936Z,100.00
2023-04-16T19:44:27.777Z,100.00
2023-04-16T19:46:54.737Z,100.00
2023-04-16T19:49:21.700Z,100.00
2023-04-16T19:51:48.612Z,100.00
2023-04-16T19:54:15.646Z,100.00
2023-04-16T19:56:42.534Z,100.00
2023-04-16T19:59:09.812Z,100.00
2023-04-16T20:01:36.934Z,100.00
2023-04-16T20:04:04.023Z,100.00
2023-04-16T20:06:31.258Z,100.00
2023-04-16T20:08:58.125Z,100.00
2023-04-16T20:11:25.070Z,100.00
2023-04-16T20:13:51.986Z,100.00
2023-04-16T20:16:23.974Z,100.00
2023-04-16T20:18:54.434Z,100.00
2023-04-16T20:21:21.826Z,100.00
2023-04-16T20:23:48.831Z,100.00
2023-04-16T20:26:19.458Z,100.00
2023-04-16T20:28:46.436Z,100.00
2023-04-16T20:31:13.313Z,100.00
2023-04-16T20:33:40.778Z,100.00
2023-04-16T20:36:07.753Z,100.00
2023-04-16T20:38:35.814Z,100.00
2023-04-16T20:41:12.793Z,100.00
2023-04-16T20:43:44.120Z,100.00
2023-04-16T20:46:12.292Z,100.00
2023-04-16T20:48:39.407Z,100.00
2023-04-16T20:51:07.841Z,100.00
2023-04-16T20:53:35.232Z,100.00
2023-04-16T20:56:02.132Z,100.00
2023-04-16T20:58:29.676Z,100.00
2023-04-16T21:00:58.029Z,100.00
2023-04-16T21:03:25.251Z,100.00
2023-04-16T21:05:53.667Z,100.00
2023-04-16T21:08:21.833Z,100.00
2023-04-16T21:10:49.310Z,100.00
2023-04-16T21:13:16.433Z,100.00
2023-04-16T21:15:45.650Z,100.00
2023-04-16T21:18:12.919Z,100.00
2023-04-16T21:20:40.282Z,100.00
2023-04-16T21:23:07.176Z,100.00
2023-04-16T21:25:34.144Z,100.00
2023-04-16T21:28:01.143Z,100.00
2023-04-16T21:30:28.027Z,100.00
2023-04-16T21:32:55.171Z,100.00
2023-04-16T21:35:22.268Z,100.00
2023-04-16T21:37:49.134Z,100.00
2023-04-16T21:40:16.272Z,100.00
2023-04-16T21:42:43.165Z,100.00
2023-04-16T21:45:10.559Z,100.00
2023-04-16T21:47:38.279Z,100.00
2023-04-16T21:50:06.073Z,100.00
2023-04-16T21:52:33.240Z,100.00
2023-04-16T21:55:00.548Z,100.00
2023-04-16T21:57:27.591Z,100.00
2023-04-16T21:59:54.471Z,100.00
2023-04-16T22:02:21.975Z,100.00
2023-04-16T22:04:49.136Z,100.00
2023-04-16T22:07:17.122Z,100.00
2023-04-16T22:09:44.264Z,100.00
2023-04-16T22:12:11.260Z,100.00
2023-04-16T22:14:43.981Z,100.00
2023-04-16T22:17:13.335Z,100.00
2023-04-16T22:19:40.251Z,98.61
2023-04-16T22:22:07.253Z,97.64
2023-04-16T22:24:34.188Z,100.00
2023-04-16T22:27:02.420Z,97.61
2023-04-16T22:29:29.426Z,96.46
2023-04-16T22:31:56.485Z,95.76
2023-04-16T22:34:23.486Z,95.91
2023-04-16T22:36:50.380Z,95.42
2023-04-16T22:39:17.311Z,94.71
2023-04-16T22:41:46.675Z,93.79
2023-04-16T22:44:13.668Z,94.06
2023-04-16T22:46:40.886Z,94.56
2023-04-16T22:49:07.792Z,94.38
2023-04-16T22:51:35.341Z,93.49
2023-04-16T22:54:02.402Z,94.87
2023-04-16T22:56:31.178Z,97.70
2023-04-16T22:58:58.075Z,94.82
2023-04-16T23:01:25.253Z,93.47
2023-04-16T23:03:52.858Z,92.99
2023-04-16T23:06:19.845Z,93.26
2023-04-16T23:08:47.016Z,95.01
2023-04-16T23:11:14.125Z,91.43
2023-04-16T23:13:42.829Z,88.05
2023-04-16T23:16:09.796Z,89.92
2023-04-16T23:18:36.968Z,90.30
2023-04-16T23:21:04.054Z,90.76
2023-04-16T23:23:31.301Z,90.65
2023-04-16T23:25:58.694Z,90.65
2023-04-16T23:28:25.911Z,91.24
2023-04-16T23:30:53.107Z,91.41
2023-04-16T23:33:20.340Z,91.83
2023-04-16T23:35:47.918Z,90.67
2023-04-16T23:38:15.424Z,90.24
2023-04-16T23:40:42.486Z,92.00
2023-04-16T23:43:09.756Z,92.93
2023-04-16T23:45:37.800Z,91.63
2023-04-16T23:48:04.900Z,91.55
2023-04-16T23:50:32.370Z,90.17
2023-04-16T23:52:59.407Z,88.87
2023-04-16T23:55:26.301Z,88.17
2023-04-16T23:57:53.453Z,87.09
